Urb Los Dominicos, Puerto Rico
Current Conditions -  °F | °C
As of 2:50 PM on Wednesday 26 Nov 2014 (Local Time) from TJIG Reporting Station
Broken Clouds Broken Clouds  
Wind Chill: 84°   Ceiling: 10000
Heat Index: 90°   Visibility: 10mi
Dew Point: 72°   Wind: 12mph
Humidity: 66%   Direction: 90°E
Pressure: 30"   Gusts: NA
Location:  18.1783°N, 66.1111°W
Report Text: TJIG 261850Z 09010KT 10SM SCT030 BKN100 29/22 A3000 RMK RY09 IN USE ATIS J
Loading
Personal Weather Stations






























Interactive Weather Map New forecast layout! Learn more

10-Day Weather Forecast

Advertisements
Track Severe Weather on mobile